createdAt,value
2022-12-01T00:01:13.887Z,95.07
2022-12-01T00:03:40.616Z,94.71
2022-12-01T00:06:11.505Z,94.25
2022-12-01T00:08:38.203Z,94.16
2022-12-01T00:11:12.943Z,94.13
2022-12-01T00:13:39.600Z,93.71
2022-12-01T00:16:13.442Z,94.05
2022-12-01T00:18:40.197Z,94.02
2022-12-01T00:21:13.147Z,93.93
2022-12-01T00:23:43.304Z,93.80
2022-12-01T00:26:09.897Z,94.47
2022-12-01T00:28:36.713Z,93.84
2022-12-01T00:31:07.975Z,93.67
2022-12-01T00:33:34.525Z,94.21
2022-12-01T00:36:02.052Z,94.16
2022-12-01T00:38:29.478Z,94.02
2022-12-01T00:40:56.195Z,94.81
2022-12-01T00:43:22.950Z,94.37
2022-12-01T00:45:51.940Z,94.82
2022-12-01T00:48:24.350Z,94.36
2022-12-01T00:50:55.015Z,94.53
2022-12-01T00:53:22.949Z,94.62
2022-12-01T00:55:49.465Z,94.88
2022-12-01T00:58:16.102Z,95.01
2022-12-01T01:00:42.681Z,95.07
2022-12-01T01:03:09.984Z,94.54
2022-12-01T01:05:38.015Z,95.05
2022-12-01T01:08:13.544Z,95.07
2022-12-01T01:10:41.572Z,95.80
2022-12-01T01:13:08.624Z,95.94
2022-12-01T01:15:35.440Z,95.57
2022-12-01T01:18:02.236Z,96.66
2022-12-01T01:20:29.657Z,97.25
2022-12-01T01:22:56.239Z,96.81
2022-12-01T01:25:23.017Z,97.33
2022-12-01T01:27:49.989Z,97.58
2022-12-01T01:30:17.348Z,98.45
2022-12-01T01:32:43.910Z,98.54
2022-12-01T01:35:10.459Z,98.12
2022-12-01T01:37:36.953Z,98.66
2022-12-01T01:40:05.897Z,98.24
2022-12-01T01:42:32.407Z,98.52
2022-12-01T01:44:59.145Z,98.29
2022-12-01T01:47:35.219Z,98.33
2022-12-01T01:50:09.487Z,98.62
2022-12-01T01:52:40.447Z,98.42
2022-12-01T01:55:07.886Z,98.11
2022-12-01T01:57:34.845Z,98.17
2022-12-01T02:00:15.434Z,98.39
2022-12-01T02:02:44.323Z,98.42
2022-12-01T02:05:16.560Z,98.65
2022-12-01T02:07:43.716Z,98.09
2022-12-01T02:10:13.606Z,98.55
2022-12-01T02:13:05.693Z,97.84
2022-12-01T02:16:03.578Z,98.05
2022-12-01T02:18:45.543Z,97.82
2022-12-01T02:21:35.135Z,97.98
2022-12-01T02:24:25.918Z,97.70
2022-12-01T02:27:16.351Z,97.32
2022-12-01T02:30:13.991Z,97.68
2022-12-01T02:32:48.104Z,98.06
2022-12-01T02:35:33.579Z,97.46
2022-12-01T02:38:18.121Z,97.30
2022-12-01T02:41:06.732Z,97.84
2022-12-01T02:43:47.140Z,98.04
2022-12-01T02:46:22.485Z,97.68
2022-12-01T02:48:53.231Z,97.64
2022-12-01T02:51:24.702Z,97.66
2022-12-01T02:53:52.935Z,97.50
2022-12-01T02:56:22.466Z,97.82
2022-12-01T02:58:49.334Z,97.39
2022-12-01T03:01:30.679Z,97.64
2022-12-01T03:04:16.211Z,97.87
2022-12-01T03:07:04.577Z,97.85
2022-12-01T03:10:09.099Z,97.90
2022-12-01T03:12:45.793Z,97.60
2022-12-01T03:15:28.955Z,97.30
2022-12-01T03:18:23.448Z,98.43
2022-12-01T03:21:03.075Z,98.02
2022-12-01T03:23:34.519Z,97.53
2022-12-01T03:26:05.087Z,97.89
2022-12-01T03:28:37.851Z,97.51
2022-12-01T03:31:09.158Z,97.09
2022-12-01T03:33:43.505Z,97.77
2022-12-01T03:36:14.934Z,97.04
2022-12-01T03:38:46.616Z,96.76
2022-12-01T03:41:16.584Z,96.98
2022-12-01T03:43:48.626Z,97.47
2022-12-01T03:46:25.488Z,96.60
2022-12-01T03:48:52.175Z,96.50
2022-12-01T03:51:32.062Z,96.97
2022-12-01T03:54:16.627Z,96.64
2022-12-01T03:56:49.828Z,97.34
2022-12-01T03:59:19.724Z,97.10
2022-12-01T04:01:46.940Z,97.14
2022-12-01T04:04:15.039Z,96.93
2022-12-01T04:06:44.664Z,97.21
2022-12-01T04:09:11.640Z,97.43
2022-12-01T04:11:38.202Z,97.09
2022-12-01T04:14:04.723Z,96.85
2022-12-01T04:16:31.416Z,96.89
2022-12-01T04:18:58.014Z,96.83
2022-12-01T04:21:24.559Z,97.00
2022-12-01T04:23:51.133Z,96.92
2022-12-01T04:26:17.747Z,96.98
2022-12-01T04:28:44.451Z,96.65
2022-12-01T04:31:11.076Z,96.42
2022-12-01T04:33:37.631Z,97.08
2022-12-01T04:36:04.415Z,96.65
2022-12-01T04:38:31.216Z,97.08
2022-12-01T04:40:58.359Z,97.00
2022-12-01T04:43:26.430Z,96.76
2022-12-01T04:45:52.915Z,96.56
2022-12-01T04:48:19.497Z,96.58
2022-12-01T04:50:49.158Z,97.22
2022-12-01T04:53:15.740Z,96.73
2022-12-01T04:55:42.278Z,97.32
2022-12-01T04:58:08.853Z,96.63
2022-12-01T05:00:35.536Z,97.24
2022-12-01T05:03:02.300Z,97.17
2022-12-01T05:05:29.606Z,96.97
2022-12-01T05:07:58.035Z,96.88
2022-12-01T05:10:24.656Z,97.04
2022-12-01T05:12:51.197Z,96.92
2022-12-01T05:15:18.042Z,96.66
2022-12-01T05:17:44.638Z,97.21
2022-12-01T05:20:19.507Z,97.40
2022-12-01T05:23:04.990Z,97.06
2022-12-01T05:25:32.873Z,96.90
2022-12-01T05:27:59.410Z,96.76
2022-12-01T05:30:28.694Z,97.50
2022-12-01T05:32:55.830Z,96.42
2022-12-01T05:35:22.374Z,96.56
2022-12-01T05:37:48.926Z,97.26
2022-12-01T05:40:15.575Z,96.95
2022-12-01T05:42:42.092Z,97.13
2022-12-01T05:45:09.134Z,96.65
2022-12-01T05:47:35.754Z,97.00
2022-12-01T05:50:05.836Z,96.79
2022-12-01T05:52:36.204Z,96.71
2022-12-01T05:55:05.021Z,97.21
2022-12-01T05:57:33.707Z,97.04
2022-12-01T06:00:00.527Z,97.01
2022-12-01T06:02:27.153Z,96.84
2022-12-01T06:04:53.818Z,96.73
2022-12-01T06:07:21.138Z,96.52
2022-12-01T06:09:48.317Z,97.17
2022-12-01T06:12:14.947Z,96.45
2022-12-01T06:14:41.501Z,96.38
2022-12-01T06:17:07.975Z,96.81
2022-12-01T06:19:35.869Z,97.28
2022-12-01T06:22:02.623Z,97.42
2022-12-01T06:24:29.370Z,97.02
2022-12-01T06:26:55.918Z,97.25
2022-12-01T06:29:22.621Z,97.03
2022-12-01T06:31:49.333Z,96.20
2022-12-01T06:34:15.930Z,96.88
2022-12-01T06:36:42.465Z,96.92
2022-12-01T06:39:10.092Z,96.53
2022-12-01T06:41:37.831Z,96.85
2022-12-01T06:44:04.877Z,96.55
2022-12-01T06:46:31.483Z,95.84
2022-12-01T06:48:58.079Z,95.37
2022-12-01T06:51:24.640Z,95.80
2022-12-01T06:53:55.038Z,95.75
2022-12-01T06:56:22.531Z,95.97
2022-12-01T06:58:50.393Z,95.68
2022-12-01T07:01:18.294Z,95.62
2022-12-01T07:03:54.121Z,96.30
2022-12-01T07:06:20.692Z,95.87
2022-12-01T07:08:47.446Z,95.90
2022-12-01T07:11:15.768Z,95.54
2022-12-01T07:13:43.925Z,96.47
2022-12-01T07:16:10.793Z,96.16
2022-12-01T07:18:38.233Z,96.53
2022-12-01T07:21:08.964Z,97.28
2022-12-01T07:23:36.181Z,96.83
2022-12-01T07:26:11.732Z,97.14
2022-12-01T07:28:38.499Z,96.72
2022-12-01T07:31:13.231Z,96.18
2022-12-01T07:33:40.278Z,96.61
2022-12-01T07:36:08.039Z,97.37
2022-12-01T07:38:36.114Z,96.37
2022-12-01T07:41:08.397Z,97.11
2022-12-01T07:43:35.616Z,96.98
2022-12-01T07:46:22.722Z,97.36
2022-12-01T07:48:51.727Z,97.29
2022-12-01T07:51:19.548Z,96.68
2022-12-01T07:53:47.522Z,97.00
2022-12-01T07:56:14.253Z,97.59
2022-12-01T07:58:41.429Z,97.24
2022-12-01T08:01:09.135Z,97.18
2022-12-01T08:03:36.561Z,97.10
2022-12-01T08:06:04.393Z,97.04
2022-12-01T08:08:33.036Z,97.25
2022-12-01T08:11:01.775Z,96.99
2022-12-01T08:13:28.789Z,97.56
2022-12-01T08:15:55.931Z,97.37
2022-12-01T08:18:23.198Z,96.68
2022-12-01T08:20:57.117Z,96.51
2022-12-01T08:23:23.730Z,97.21
2022-12-01T08:25:50.287Z,97.09
2022-12-01T08:28:16.908Z,97.37
2022-12-01T08:30:43.619Z,97.28
2022-12-01T08:33:10.229Z,96.80
2022-12-01T08:35:36.868Z,97.16
2022-12-01T08:38:04.066Z,96.78
2022-12-01T08:40:30.971Z,96.83
2022-12-01T08:42:57.601Z,96.80
2022-12-01T08:45:24.337Z,97.45
2022-12-01T08:47:50.830Z,97.12
2022-12-01T08:50:17.410Z,97.16
2022-12-01T08:52:44.152Z,96.74
2022-12-01T08:55:10.904Z,97.35
2022-12-01T08:57:37.694Z,97.70
2022-12-01T09:00:04.898Z,97.24
2022-12-01T09:02:31.551Z,97.34
2022-12-01T09:04:58.297Z,97.35
2022-12-01T09:07:26.822Z,97.48
2022-12-01T09:09:53.585Z,96.70
2022-12-01T09:12:20.086Z,96.64
2022-12-01T09:14:46.799Z,97.07
2022-12-01T09:17:14.023Z,96.86
2022-12-01T09:19:40.620Z,97.42
2022-12-01T09:22:07.260Z,97.09
2022-12-01T09:24:33.864Z,97.03
2022-12-01T09:27:00.984Z,97.30
2022-12-01T09:29:27.447Z,97.38
2022-12-01T09:31:58.241Z,97.18
2022-12-01T09:34:25.231Z,96.74
2022-12-01T09:36:55.656Z,97.28
2022-12-01T09:39:22.214Z,97.01
2022-12-01T09:42:11.287Z,96.17
2022-12-01T09:44:49.355Z,96.29
2022-12-01T09:47:25.330Z,96.53
2022-12-01T09:50:10.169Z,96.64
2022-12-01T09:52:45.095Z,96.72
2022-12-01T09:55:13.593Z,96.39
2022-12-01T09:57:42.349Z,96.21
2022-12-01T10:00:21.775Z,96.22
2022-12-01T10:03:21.948Z,96.11
2022-12-01T10:06:25.348Z,96.73
2022-12-01T10:08:48.700Z,96.80
2022-12-01T10:11:34.408Z,96.67
2022-12-01T10:14:01.858Z,96.86
2022-12-01T10:16:43.072Z,95.94
2022-12-01T10:19:22.992Z,95.98
2022-12-01T10:22:08.615Z,96.05
2022-12-01T10:24:52.834Z,96.03
2022-12-01T10:27:22.468Z,95.50
2022-12-01T10:29:58.067Z,95.33
2022-12-01T10:32:50.073Z,95.53
2022-12-01T10:35:17.651Z,95.09
2022-12-01T10:37:46.204Z,95.35
2022-12-01T10:40:17.081Z,94.85
2022-12-01T10:42:46.175Z,95.05
2022-12-01T10:45:27.645Z,94.67
2022-12-01T10:48:16.109Z,94.42
2022-12-01T10:50:48.029Z,94.41
2022-12-01T10:53:32.868Z,94.73
2022-12-01T10:56:15.137Z,94.93
2022-12-01T10:58:55.702Z,94.94
2022-12-01T11:01:27.633Z,94.71
2022-12-01T11:04:06.991Z,94.86
2022-12-01T11:06:34.892Z,94.17
2022-12-01T11:09:05.111Z,94.44
2022-12-01T11:11:38.057Z,93.68
2022-12-01T11:14:17.421Z,93.43
2022-12-01T11:16:46.647Z,93.28
2022-12-01T11:19:28.478Z,92.39
2022-12-01T11:21:56.749Z,92.09
2022-12-01T11:24:33.252Z,91.90
2022-12-01T11:27:00.705Z,92.08
2022-12-01T11:29:32.608Z,91.29
2022-12-01T11:32:00.713Z,91.54
2022-12-01T11:34:31.308Z,91.22
2022-12-01T11:37:01.487Z,91.46
2022-12-01T11:39:43.773Z,91.59
2022-12-01T11:42:28.273Z,91.38
2022-12-01T11:45:05.420Z,90.91
2022-12-01T11:47:31.973Z,91.26
2022-12-01T11:50:01.441Z,91.14
2022-12-01T11:52:34.115Z,90.99
2022-12-01T11:55:12.218Z,90.42
2022-12-01T11:57:44.899Z,90.01
2022-12-01T12:00:16.914Z,89.73
2022-12-01T12:02:46.691Z,89.93
2022-12-01T12:05:30.278Z,89.48
2022-12-01T12:08:07.516Z,90.01
2022-12-01T12:10:56.185Z,89.51
2022-12-01T12:13:44.762Z,89.34
2022-12-01T12:16:37.340Z,88.87
2022-12-01T12:19:14.738Z,88.78
2022-12-01T12:22:11.205Z,88.68
2022-12-01T12:25:18.875Z,88.98
2022-12-01T12:27:53.812Z,88.81
2022-12-01T12:30:28.830Z,88.88
2022-12-01T12:33:05.150Z,88.64
2022-12-01T12:35:47.455Z,89.23
2022-12-01T12:38:20.164Z,89.04
2022-12-01T12:40:46.810Z,89.35
2022-12-01T12:43:48.314Z,88.78
2022-12-01T12:46:31.230Z,87.64
2022-12-01T12:49:21.480Z,87.32
2022-12-01T12:52:02.596Z,88.56
2022-12-01T12:54:41.868Z,88.31
2022-12-01T12:57:27.128Z,87.53
2022-12-01T13:00:28.939Z,87.39
2022-12-01T13:03:14.135Z,87.21
2022-12-01T13:05:47.084Z,87.56
2022-12-01T13:08:19.356Z,87.43
2022-12-01T13:11:08.438Z,87.91
2022-12-01T13:13:53.369Z,87.28
2022-12-01T13:16:26.113Z,87.59
2022-12-01T13:19:03.039Z,87.79
2022-12-01T13:21:36.595Z,87.63
2022-12-01T13:24:04.822Z,87.51
2022-12-01T13:26:34.605Z,87.61
2022-12-01T13:29:06.113Z,87.49
2022-12-01T13:31:43.935Z,87.78
2022-12-01T13:34:19.187Z,88.43
2022-12-01T13:36:53.769Z,88.42
2022-12-01T13:39:29.152Z,88.49
2022-12-01T13:42:09.309Z,88.68
2022-12-01T13:44:42.553Z,88.54
2022-12-01T13:47:11.775Z,88.08
2022-12-01T13:49:50.256Z,87.97
2022-12-01T13:52:23.114Z,88.56
2022-12-01T13:55:08.101Z,88.31
2022-12-01T13:57:37.980Z,88.75
2022-12-01T14:00:04.577Z,87.99
2022-12-01T14:02:39.052Z,88.21
2022-12-01T14:05:24.349Z,88.65
2022-12-01T14:07:52.533Z,88.63
2022-12-01T14:10:19.379Z,88.84
2022-12-01T14:12:46.698Z,89.39
2022-12-01T14:15:33.736Z,89.35
2022-12-01T14:18:06.190Z,89.16
2022-12-01T14:20:43.184Z,89.00
2022-12-01T14:23:27.064Z,89.49
2022-12-01T14:25:59.113Z,89.20
2022-12-01T14:28:59.841Z,89.42
2022-12-01T14:31:32.617Z,89.44
2022-12-01T14:34:02.280Z,89.25
2022-12-01T14:36:53.768Z,89.48
2022-12-01T14:39:25.912Z,89.32
2022-12-01T14:41:57.080Z,89.62
2022-12-01T14:44:32.780Z,90.36
2022-12-01T14:47:13.390Z,90.31
2022-12-01T14:49:47.237Z,90.77
2022-12-01T14:52:38.133Z,90.19
2022-12-01T14:55:13.082Z,90.16
2022-12-01T14:57:44.144Z,90.70
2022-12-01T15:00:20.165Z,90.88
2022-12-01T15:02:56.042Z,90.18
2022-12-01T15:05:28.558Z,89.91
2022-12-01T15:08:18.577Z,90.31
2022-12-01T15:10:59.814Z,90.54
2022-12-01T15:13:29.164Z,90.16
2022-12-01T15:15:59.865Z,90.50
2022-12-01T15:18:32.322Z,90.87
2022-12-01T15:21:11.110Z,91.55
2022-12-01T15:23:52.065Z,91.00
2022-12-01T15:26:23.485Z,91.06
2022-12-01T15:28:51.192Z,90.81
2022-12-01T15:31:18.043Z,90.79
2022-12-01T15:33:51.989Z,90.71
2022-12-01T15:36:19.756Z,90.82
2022-12-01T15:38:48.094Z,91.42
2022-12-01T15:41:30.032Z,91.13
2022-12-01T15:43:59.363Z,91.24
2022-12-01T15:46:34.089Z,91.15
2022-12-01T15:49:19.353Z,91.86
2022-12-01T15:51:48.901Z,92.10
2022-12-01T15:54:25.562Z,91.64
2022-12-01T15:56:57.564Z,92.26
2022-12-01T15:59:28.829Z,91.35
2022-12-01T16:01:56.233Z,92.05
2022-12-01T16:04:32.271Z,91.90
2022-12-01T16:07:06.952Z,91.94
2022-12-01T16:09:57.603Z,91.89
2022-12-01T16:12:29.852Z,92.09
2022-12-01T16:15:00.584Z,92.25
2022-12-01T16:17:48.824Z,92.08
2022-12-01T16:20:24.417Z,92.24
2022-12-01T16:22:57.099Z,92.57
2022-12-01T16:25:41.487Z,91.83
2022-12-01T16:28:22.526Z,92.58
2022-12-01T16:30:49.951Z,92.15
2022-12-01T16:33:19.957Z,92.43
2022-12-01T16:35:46.498Z,92.12
2022-12-01T16:38:21.933Z,92.35
2022-12-01T16:41:16.040Z,92.04
2022-12-01T16:43:59.173Z,92.25
2022-12-01T16:46:29.654Z,92.61
2022-12-01T16:48:56.303Z,92.60
2022-12-01T16:51:29.903Z,92.68
2022-12-01T16:54:10.246Z,92.59
2022-12-01T16:56:36.782Z,92.66
2022-12-01T16:59:03.402Z,92.61
2022-12-01T17:01:30.113Z,93.04
2022-12-01T17:03:56.987Z,93.32
2022-12-01T17:06:24.292Z,92.69
2022-12-01T17:08:51.742Z,93.01
2022-12-01T17:11:18.426Z,93.46
2022-12-01T17:13:45.372Z,93.63
2022-12-01T17:16:17.977Z,92.94
2022-12-01T17:18:45.428Z,93.23
2022-12-01T17:21:12.123Z,93.58
2022-12-01T17:23:39.324Z,93.82
2022-12-01T17:26:11.828Z,92.93
2022-12-01T17:28:39.151Z,93.09
2022-12-01T17:31:07.209Z,93.49
2022-12-01T17:33:35.212Z,93.82
2022-12-01T17:36:04.506Z,93.29
2022-12-01T17:38:34.743Z,93.40
2022-12-01T17:41:03.955Z,93.32
2022-12-01T17:43:30.620Z,93.94
2022-12-01T17:45:57.624Z,93.44
2022-12-01T17:48:24.382Z,94.12
2022-12-01T17:50:51.011Z,93.87
2022-12-01T17:53:17.716Z,93.54
2022-12-01T17:55:44.709Z,93.94
2022-12-01T17:58:11.428Z,94.04
2022-12-01T18:00:38.113Z,93.76
2022-12-01T18:03:04.868Z,94.36
2022-12-01T18:05:31.639Z,94.16
2022-12-01T18:07:58.753Z,94.23
2022-12-01T18:10:25.500Z,93.94
2022-12-01T18:12:52.037Z,94.63
2022-12-01T18:15:18.693Z,94.16
2022-12-01T18:17:45.202Z,94.45
2022-12-01T18:20:12.029Z,94.96
2022-12-01T18:22:38.628Z,94.16
2022-12-01T18:25:05.888Z,94.26
2022-12-01T18:27:32.513Z,94.67
2022-12-01T18:29:59.137Z,94.43
2022-12-01T18:32:25.940Z,94.71
2022-12-01T18:34:53.002Z,94.21
2022-12-01T18:37:19.879Z,94.37
2022-12-01T18:39:46.455Z,94.79
2022-12-01T18:42:13.251Z,93.89
2022-12-01T18:44:39.804Z,94.75
2022-12-01T18:47:06.454Z,94.08
2022-12-01T18:49:33.141Z,94.05
2022-12-01T18:51:59.917Z,94.63
2022-12-01T18:54:26.852Z,94.22
2022-12-01T18:56:53.706Z,94.59
2022-12-01T18:59:20.333Z,94.62
2022-12-01T19:01:47.123Z,94.53
2022-12-01T19:04:14.965Z,94.58
2022-12-01T19:06:42.663Z,94.95
2022-12-01T19:09:11.474Z,94.93
2022-12-01T19:11:39.297Z,94.64
2022-12-01T19:14:11.942Z,95.10
2022-12-01T19:16:39.437Z,94.22
2022-12-01T19:19:06.056Z,95.43
2022-12-01T19:21:32.715Z,95.08
2022-12-01T19:23:59.412Z,94.87
2022-12-01T19:26:26.042Z,94.69
2022-12-01T19:28:52.979Z,94.63
2022-12-01T19:31:24.162Z,94.18
2022-12-01T19:33:55.624Z,94.89
2022-12-01T19:36:27.486Z,95.17
2022-12-01T19:38:57.460Z,94.62
2022-12-01T19:41:25.556Z,95.65
2022-12-01T19:43:53.378Z,95.10
2022-12-01T19:46:22.829Z,94.93
2022-12-01T19:48:55.232Z,95.12
2022-12-01T19:51:35.744Z,94.69
2022-12-01T19:54:07.151Z,95.40
2022-12-01T19:56:34.366Z,95.33
2022-12-01T19:59:02.011Z,94.92
2022-12-01T20:01:31.853Z,95.35
2022-12-01T20:03:58.496Z,94.89
2022-12-01T20:06:30.766Z,94.99
2022-12-01T20:08:59.526Z,94.79
2022-12-01T20:11:28.511Z,94.89
2022-12-01T20:13:55.671Z,94.71
2022-12-01T20:16:24.311Z,94.92
2022-12-01T20:18:51.740Z,95.42
2022-12-01T20:21:21.902Z,94.87
2022-12-01T20:23:51.890Z,95.31
2022-12-01T20:26:20.023Z,95.57
2022-12-01T20:28:49.196Z,95.40
2022-12-01T20:31:21.901Z,95.06
2022-12-01T20:33:49.384Z,94.99
2022-12-01T20:36:16.142Z,95.50
2022-12-01T20:38:42.825Z,95.17
2022-12-01T20:41:10.887Z,95.26
2022-12-01T20:43:37.718Z,94.94
2022-12-01T20:46:04.995Z,94.77
2022-12-01T20:48:32.451Z,94.80
2022-12-01T20:51:03.819Z,95.29
2022-12-01T20:53:30.722Z,94.59
2022-12-01T20:55:57.326Z,94.93
2022-12-01T20:58:24.125Z,95.07
2022-12-01T21:00:50.763Z,95.15
2022-12-01T21:03:17.532Z,94.85
2022-12-01T21:05:44.459Z,95.97
2022-12-01T21:08:13.276Z,94.88
2022-12-01T21:10:45.276Z,95.28
2022-12-01T21:13:21.835Z,95.72
2022-12-01T21:15:55.456Z,95.15
2022-12-01T21:18:29.758Z,95.82
2022-12-01T21:21:04.742Z,94.65
2022-12-01T21:23:31.343Z,95.68
2022-12-01T21:25:57.844Z,95.64
2022-12-01T21:28:26.652Z,96.10
2022-12-01T21:31:07.667Z,95.74
2022-12-01T21:33:35.767Z,95.82
2022-12-01T21:36:15.656Z,95.49
2022-12-01T21:38:43.663Z,95.16
2022-12-01T21:41:27.101Z,95.50
2022-12-01T21:44:07.724Z,95.96
2022-12-01T21:46:37.308Z,95.49
2022-12-01T21:49:17.469Z,95.16
2022-12-01T21:51:45.075Z,95.40
2022-12-01T21:54:22.883Z,95.52
2022-12-01T21:56:52.172Z,96.44
2022-12-01T21:59:23.571Z,96.38
2022-12-01T22:02:01.218Z,95.86
2022-12-01T22:04:31.506Z,95.94
2022-12-01T22:06:58.370Z,96.50
2022-12-01T22:09:29.373Z,96.08
2022-12-01T22:11:59.584Z,95.79
2022-12-01T22:14:34.389Z,96.86
2022-12-01T22:17:07.165Z,96.93
2022-12-01T22:19:37.621Z,95.78
2022-12-01T22:22:13.439Z,95.67
2022-12-01T22:24:48.961Z,96.62
2022-12-01T22:27:38.540Z,95.66
2022-12-01T22:30:08.160Z,96.09
2022-12-01T22:32:37.569Z,95.74
2022-12-01T22:35:16.267Z,95.84
2022-12-01T22:37:48.574Z,96.87
2022-12-01T22:40:49.219Z,96.57
2022-12-01T22:43:15.698Z,95.57
2022-12-01T22:45:43.663Z,96.41
2022-12-01T22:48:34.067Z,95.82
2022-12-01T22:51:16.802Z,96.48
2022-12-01T22:53:46.016Z,96.15
2022-12-01T22:56:42.334Z,95.85
2022-12-01T22:59:19.355Z,96.35
2022-12-01T23:01:53.846Z,95.95
2022-12-01T23:04:33.136Z,96.46
2022-12-01T23:07:10.255Z,96.09
2022-12-01T23:09:42.318Z,96.64
2022-12-01T23:12:11.869Z,95.94
2022-12-01T23:14:54.187Z,96.96
2022-12-01T23:17:29.378Z,96.17
2022-12-01T23:20:25.278Z,95.92
2022-12-01T23:22:56.677Z,96.75
2022-12-01T23:25:24.962Z,96.28
2022-12-01T23:27:52.801Z,96.32
2022-12-01T23:30:20.837Z,96.36
2022-12-01T23:33:03.930Z,96.58
2022-12-01T23:35:32.468Z,95.99
2022-12-01T23:37:58.996Z,95.66
2022-12-01T23:40:34.863Z,96.02
2022-12-01T23:43:23.000Z,96.48
2022-12-01T23:45:52.836Z,96.40
2022-12-01T23:48:23.160Z,96.42
2022-12-01T23:50:52.792Z,96.85
2022-12-01T23:53:32.450Z,96.55
2022-12-01T23:56:09.135Z,96.23
2022-12-01T23:58:35.764Z,95.91
